EYP weather

El Yopal Airport
El Yopal, Casanare Department, Colombia

Public forecast

Using degrees Celsius for public forecast. Weather courtesy of forecast.io.

METAR (pilot weather report)

Report is more than 6 hours old.

Retrieved 2019/03/20 14:00 UTC (29 days ago):

SKYP 201400Z 03004KT 9000 BKN070 28/21 A2994 RMK HZ

TAF (pilot weather forecast)

Closest forecast is El Dorado International Airport, 111.8 nm (207.0 km) WSW. Retrieved 2019/04/18 06:38 UTC (4 hours ago):

TAF SKBO 180500Z 1806/1906 05005KT 9999 FEW020 BKN090 BECMG 1815/1817 30010KT SCT020 TEMPO 1819/1822 8000 TSRA SCT012CB OVC080 BECMG 1901/1903 04005KT TEMPO 1903/1906 8000 RA BKN012 TX20/1818Z TN09/1811Z